Time;durP1;ratioP1;P1;durP2;ratioP2;P2;SDS_P1;SDS_P2;PMS_P1;PMS_P2;Temp;Humidity;BMP_temperature;BMP_pressure;BME280_temperature;BME280_humidity;BME280_pressure;Samples;Min_cycle;Max_cycle;Signal;HPM_P1;HPM_P2
2022/05/07 00:01:59;;;;;;;25.63;21.10;;;16.30;1.00;;;;;;5112956;28;20195;-73
2022/05/07 00:04:25;;;;;;;26.03;22.20;;;16.40;1.00;;;;;;5113405;28;20167;-72
2022/05/07 00:06:51;;;;;;;24.23;21.70;;;16.40;1.00;;;;;;5113320;28;20241;-72
2022/05/07 00:09:18;;;;;;;25.90;21.67;;;16.30;1.00;;;;;;5113357;28;20242;-73
2022/05/07 00:11:46;;;;;;;30.17;22.70;;;16.30;1.00;;;;;;5113304;28;20175;-73
2022/05/07 00:14:11;;;;;;;28.03;22.70;;;16.40;1.00;;;;;;5095656;28;20194;-73
2022/05/07 00:19:21;;;;;;;27.17;22.57;;;16.30;1.00;;;;;;5117565;28;20174;-72
2022/05/07 00:21:46;;;;;;;30.83;23.40;;;16.30;1.00;;;;;;5117123;28;20167;-71
2022/05/07 00:24:12;;;;;;;32.23;25.47;;;16.20;1.00;;;;;;5116993;28;20695;-72
2022/05/07 00:26:37;;;;;;;27.67;22.27;;;16.20;1.00;;;;;;5117069;27;20199;-73
2022/05/07 00:29:03;;;;;;;28.87;23.70;;;16.30;1.00;;;;;;5116734;28;20622;-72
2022/05/07 00:31:28;;;;;;;30.43;22.97;;;16.20;1.00;;;;;;5117016;28;20178;-72
2022/05/07 00:33:54;;;;;;;30.10;22.40;;;16.10;1.00;;;;;;5117258;28;20171;-71
2022/05/07 00:36:19;;;;;;;25.87;22.20;;;16.10;1.00;;;;;;5116676;28;20211;-71
2022/05/07 00:38:45;;;;;;;27.70;22.60;;;16.10;1.00;;;;;;5116916;28;20544;-73
2022/05/07 00:41:11;;;;;;;29.53;23.43;;;16.10;1.00;;;;;;5116896;28;20270;-72
2022/05/07 00:43:39;;;;;;;32.10;22.90;;;16.00;1.00;;;;;;5098527;28;20186;-73
2022/05/07 00:46:05;;;;;;;29.70;22.33;;;16.10;1.00;;;;;;5116765;28;20171;-72
2022/05/07 00:48:31;;;;;;;32.17;22.03;;;16.10;1.00;;;;;;5116752;28;20175;-73
2022/05/07 00:53:41;;;;;;;23.53;19.10;;;16.20;1.00;;;;;;5116961;28;20182;-72
2022/05/07 00:56:07;;;;;;;23.97;19.50;;;16.20;1.00;;;;;;5116361;28;20207;-73
2022/05/07 00:58:35;;;;;;;23.60;18.90;;;16.10;1.00;;;;;;5115958;28;20337;-73
2022/05/07 01:01:00;;;;;;;20.13;18.00;;;16.10;1.00;;;;;;5116250;28;20186;-73
2022/05/07 01:03:26;;;;;;;21.97;17.47;;;16.10;1.00;;;;;;5116358;28;20183;-72
2022/05/07 01:05:53;;;;;;;21.90;18.43;;;16.00;1.00;;;;;;5116513;28;20171;-73
2022/05/07 01:08:20;;;;;;;21.00;18.40;;;16.00;1.00;;;;;;5116405;28;20167;-72
2022/05/07 01:10:47;;;;;;;23.10;18.60;;;15.90;1.00;;;;;;5116448;28;20206;-72
2022/05/07 01:13:13;;;;;;;21.13;17.50;;;15.80;1.00;;;;;;5116006;28;20203;-72
2022/05/07 01:15:43;;;;;;;19.53;17.20;;;15.70;1.00;;;;;;5116134;28;20624;-71
2022/05/07 01:18:10;;;;;;;19.63;16.33;;;15.70;1.00;;;;;;5116301;28;20175;-72
2022/05/07 01:20:36;;;;;;;21.03;17.57;;;15.60;1.00;;;;;;5116105;28;20164;-71
2022/05/07 01:23:02;;;;;;;20.20;16.60;;;15.60;1.00;;;;;;5115948;28;20197;-71
2022/05/07 01:25:27;;;;;;;20.33;15.77;;;15.70;1.00;;;;;;5115680;28;20198;-71
2022/05/07 01:27:53;;;;;;;18.83;15.03;;;15.70;1.00;;;;;;5114483;28;20649;-71
2022/05/07 01:30:19;;;;;;;20.43;15.17;;;15.60;1.00;;;;;;5115863;28;20168;-73
2022/05/07 01:32:44;;;;;;;16.43;14.13;;;15.50;1.00;;;;;;5115693;28;20198;-73
2022/05/07 01:35:10;;;;;;;18.30;14.43;;;15.50;1.00;;;;;;5115785;28;20195;-71
2022/05/07 01:37:36;;;;;;;17.90;14.30;;;15.50;1.00;;;;;;5115643;28;20646;-71
2022/05/07 01:40:02;;;;;;;16.93;14.23;;;15.50;1.00;;;;;;5115796;28;20262;-72
2022/05/07 01:42:28;;;;;;;16.40;14.10;;;15.60;1.00;;;;;;5115422;28;20172;-72
2022/05/07 01:44:53;;;;;;;16.50;14.27;;;15.60;1.00;;;;;;5115705;28;20167;-73
2022/05/07 01:50:04;;;;;;;16.40;13.77;;;15.60;1.00;;;;;;5115366;28;20177;-72
2022/05/07 01:52:30;;;;;;;16.67;13.67;;;15.50;1.00;;;;;;5115299;28;20175;-72
2022/05/07 01:54:55;;;;;;;15.03;13.23;;;15.50;1.00;;;;;;5115420;28;20171;-72
2022/05/07 01:57:21;;;;;;;16.90;12.77;;;15.60;1.00;;;;;;5114869;28;20179;-72
2022/05/07 01:59:46;;;;;;;17.47;12.23;;;15.60;1.00;;;;;;5115238;28;20175;-72
2022/05/07 02:02:12;;;;;;;16.87;13.70;;;15.60;1.00;;;;;;5115238;28;20221;-72
2022/05/07 02:04:39;;;;;;;17.17;14.40;;;15.60;1.00;;;;;;5115388;28;20163;-72
2022/05/07 02:07:05;;;;;;;17.97;13.60;;;15.70;1.00;;;;;;5115178;28;20166;-72
2022/05/07 02:09:31;;;;;;;16.67;14.37;;;15.70;1.00;;;;;;5115381;28;20171;-72
2022/05/07 02:11:56;;;;;;;18.40;14.70;;;15.70;1.00;;;;;;5114834;28;20159;-72
2022/05/07 02:14:22;;;;;;;15.93;14.23;;;15.70;1.00;;;;;;5114867;28;20176;-72
2022/05/07 02:16:47;;;;;;;16.90;13.60;;;15.70;1.00;;;;;;5114921;28;20294;-71
2022/05/07 02:19:13;;;;;;;19.40;14.63;;;15.70;1.00;;;;;;5114849;28;20163;-71
2022/05/07 02:21:38;;;;;;;15.73;13.90;;;15.60;1.00;;;;;;5114959;28;20171;-71
2022/05/07 02:24:04;;;;;;;20.00;14.27;;;15.50;1.00;;;;;;5114582;28;20171;-71
2022/05/07 02:26:30;;;;;;;17.50;14.10;;;15.40;1.00;;;;;;5114348;28;20194;-72
2022/05/07 02:28:56;;;;;;;17.40;13.80;;;15.40;1.00;;;;;;5114691;28;20246;-72
2022/05/07 02:31:21;;;;;;;18.53;12.83;;;15.30;1.00;;;;;;5114534;28;20159;-71
2022/05/07 02:33:47;;;;;;;15.87;12.97;;;15.20;1.00;;;;;;5114548;28;20290;-71
2022/05/07 02:36:13;;;;;;;16.10;11.87;;;15.30;1.00;;;;;;5114415;28;20293;-71
2022/05/07 02:38:39;;;;;;;13.73;11.90;;;15.20;1.00;;;;;;5095905;28;20624;-71
2022/05/07 02:43:49;;;;;;;14.10;10.87;;;15.20;1.00;;;;;;5114548;28;20314;-71
2022/05/07 02:46:15;;;;;;;16.23;11.20;;;15.10;1.00;;;;;;5114524;28;20256;-71
2022/05/07 02:48:44;;;;;;;14.00;10.77;;;15.10;1.00;;;;;;5114400;28;20186;-71
2022/05/07 02:51:10;;;;;;;12.40;11.17;;;15.20;1.00;;;;;;5096136;28;20175;-71
2022/05/07 02:53:36;;;;;;;15.33;10.73;;;15.20;1.00;;;;;;5114308;28;20645;-71
2022/05/07 02:56:02;;;;;;;13.23;10.30;;;15.20;1.00;;;;;;5113419;28;20226;-71
2022/05/07 02:58:27;;;;;;;12.03;9.93;;;15.20;1.00;;;;;;5114026;28;20580;-71
2022/05/07 03:00:53;;;;;;;12.30;9.90;;;15.10;99.90;;;;;;5114113;28;20167;-71
2022/05/07 03:03:19;;;;;;;10.23;9.13;;;15.10;1.00;;;;;;5114244;28;20528;-71
2022/05/07 03:05:44;;;;;;;11.10;9.30;;;15.00;1.00;;;;;;5114096;28;20602;-71
2022/05/07 03:08:10;;;;;;;10.03;9.00;;;15.00;99.90;;;;;;5114116;28;20644;-71
2022/05/07 03:10:36;;;;;;;13.30;9.57;;;15.00;99.90;;;;;;5113357;28;20263;-71
2022/05/07 03:13:02;;;;;;;11.13;9.13;;;14.90;1.00;;;;;;5114033;28;20163;-71
2022/05/07 03:15:28;;;;;;;13.10;9.20;;;14.70;1.00;;;;;;5113790;28;20190;-72
2022/05/07 03:17:53;;;;;;;10.17;8.93;;;14.50;1.00;;;;;;5113714;28;20262;-71
2022/05/07 03:20:19;;;;;;;16.13;9.97;;;14.20;1.00;;;;;;5113338;28;20182;-70
2022/05/07 03:22:45;;;;;;;11.87;9.23;;;14.10;1.00;;;;;;5113966;28;20178;-71
2022/05/07 03:25:11;;;;;;;11.77;9.13;;;14.00;1.00;;;;;;5113385;28;20221;-71
2022/05/07 03:27:37;;;;;;;11.93;10.00;;;13.90;1.00;;;;;;5113776;28;20257;-71
2022/05/07 03:30:04;;;;;;;12.60;9.03;;;13.90;1.00;;;;;;5113875;28;20259;-71
2022/05/07 03:32:30;;;;;;;12.67;9.17;;;14.00;1.00;;;;;;5113731;28;20236;-71
2022/05/07 03:34:57;;;;;;;11.20;9.43;;;14.00;1.00;;;;;;5113511;28;20175;-71
2022/05/07 03:37:23;;;;;;;13.97;9.70;;;13.90;1.00;;;;;;5113179;28;20253;-71
2022/05/07 03:39:50;;;;;;;11.70;9.33;;;13.90;1.00;;;;;;5113414;28;20202;-71
2022/05/07 03:42:16;;;;;;;17.83;10.13;;;14.00;1.00;;;;;;5113418;28;20641;-71
2022/05/07 03:44:42;;;;;;;9.83;8.83;;;14.00;1.00;;;;;;5113338;28;20170;-71
2022/05/07 03:47:08;;;;;;;13.07;9.47;;;13.90;1.00;;;;;;5113233;28;20270;-72
2022/05/07 03:49:34;;;;;;;12.97;9.17;;;14.00;1.00;;;;;;5113867;28;20167;-72
2022/05/07 03:54:43;;;;;;;10.63;9.17;;;14.10;1.00;;;;;;5117340;28;20170;-72
2022/05/07 03:57:13;;;;;;;12.63;9.60;;;14.00;1.00;;;;;;5117280;28;20206;-73
2022/05/07 03:59:39;;;;;;;14.53;9.90;;;13.90;1.00;;;;;;5117769;28;20175;-72
2022/05/07 04:02:05;;;;;;;13.77;10.03;;;14.00;1.00;;;;;;5117604;28;20175;-73
2022/05/07 04:04:30;;;;;;;11.83;9.70;;;14.00;1.00;;;;;;5117205;28;20167;-73
2022/05/07 04:06:56;;;;;;;12.70;9.87;;;14.00;1.00;;;;;;5116754;28;20217;-72
2022/05/07 04:09:21;;;;;;;18.40;10.77;;;14.10;1.00;;;;;;5117311;28;20159;-72
2022/05/07 04:11:47;;;;;;;14.90;10.60;;;14.20;1.00;;;;;;5117344;28;20252;-72
2022/05/07 04:14:13;;;;;;;14.03;10.20;;;14.10;1.00;;;;;;5117000;28;20167;-72
2022/05/07 04:16:38;;;;;;;15.30;10.30;;;13.90;1.00;;;;;;5116825;28;20226;-72
2022/05/07 04:19:04;;;;;;;12.83;9.17;;;13.80;1.00;;;;;;5117375;28;20317;-72
2022/05/07 04:21:29;;;;;;;14.07;9.77;;;13.70;1.00;;;;;;5116325;28;20179;-72
2022/05/07 04:23:55;;;;;;;18.50;10.93;;;13.70;1.00;;;;;;5117096;28;20250;-72
2022/05/07 04:26:21;;;;;;;14.70;10.17;;;13.70;1.00;;;;;;5117143;28;20191;-72
2022/05/07 04:28:46;;;;;;;10.87;9.33;;;13.60;1.00;;;;;;5116655;28;20225;-72
2022/05/07 04:31:15;;;;;;;13.37;9.73;;;13.60;1.00;;;;;;5117016;28;20179;-72
2022/05/07 04:33:41;;;;;;;13.17;9.67;;;13.60;1.00;;;;;;5116748;28;20197;-72
2022/05/07 04:36:07;;;;;;;13.77;10.50;;;13.60;1.00;;;;;;5115957;28;20235;-72
2022/05/07 04:38:32;;;;;;;15.83;10.80;;;13.50;1.00;;;;;;5117018;28;20615;-71
2022/05/07 04:40:58;;;;;;;17.50;11.17;;;13.50;1.00;;;;;;5116379;28;20179;-72
2022/05/07 04:43:23;;;;;;;18.40;11.60;;;13.60;1.00;;;;;;5116296;28;20648;-72
2022/05/07 04:45:49;;;;;;;14.63;11.03;;;13.60;1.00;;;;;;5116703;28;20212;-72
2022/05/07 04:48:14;;;;;;;17.03;11.73;;;13.60;1.00;;;;;;5116230;28;20653;-72
2022/05/07 04:50:40;;;;;;;18.87;11.97;;;13.60;1.00;;;;;;5115759;28;20168;-72
2022/05/07 04:53:05;;;;;;;21.80;13.00;;;13.50;1.00;;;;;;5097642;28;20542;-72
2022/05/07 04:55:31;;;;;;;16.97;11.97;;;13.50;1.00;;;;;;5116116;28;20198;-72
2022/05/07 04:57:57;;;;;;;18.53;12.50;;;13.50;1.00;;;;;;5115657;28;20367;-72
2022/05/07 05:00:23;;;;;;;18.50;12.73;;;13.60;1.00;;;;;;5115687;28;20653;-72
2022/05/07 05:02:48;;;;;;;18.97;11.97;;;13.70;1.00;;;;;;5116226;28;20174;-71
2022/05/07 05:05:14;;;;;;;19.43;12.10;;;13.70;1.00;;;;;;5115476;28;20163;-72
2022/05/07 05:07:40;;;;;;;16.10;12.57;;;13.80;1.00;;;;;;5116025;28;20224;-71
2022/05/07 05:10:07;;;;;;;19.50;12.03;;;13.90;1.00;;;;;;5115815;28;20175;-72
2022/05/07 05:12:32;;;;;;;17.60;11.87;;;13.90;1.00;;;;;;5115617;28;20178;-72
2022/05/07 05:15:01;;;;;;;23.77;12.03;;;13.90;1.00;;;;;;5115292;28;20531;-73
2022/05/07 05:17:27;;;;;;;20.93;12.20;;;13.90;1.00;;;;;;5115578;28;20229;-73
2022/05/07 05:19:53;;;;;;;16.60;12.23;;;14.10;1.00;;;;;;5115434;28;20171;-73
2022/05/07 05:22:19;;;;;;;21.17;11.73;;;14.20;1.00;;;;;;5115902;28;20171;-73
2022/05/07 05:24:44;;;;;;;22.10;12.63;;;14.40;1.00;;;;;;5116305;28;20244;-73
2022/05/07 05:27:10;;;;;;;22.87;12.80;;;14.40;1.00;;;;;;5115890;28;20630;-73
2022/05/07 05:29:35;;;;;;;23.57;12.30;;;14.50;1.00;;;;;;5115530;28;20167;-72
2022/05/07 05:32:01;;;;;;;21.93;12.70;;;14.70;1.00;;;;;;5115899;28;20693;-73
2022/05/07 05:34:27;;;;;;;25.20;12.97;;;14.70;1.00;;;;;;5115397;28;20540;-73
2022/05/07 05:36:53;;;;;;;20.73;12.73;;;14.70;1.00;;;;;;5115460;28;20206;-72
2022/05/07 05:39:18;;;;;;;24.90;13.60;;;14.70;1.00;;;;;;5115495;28;20519;-72
2022/05/07 05:41:44;;;;;;;27.33;13.73;;;14.70;1.00;;;;;;5115406;28;20175;-73
2022/05/07 05:44:12;;;;;;;22.37;13.30;;;14.40;1.00;;;;;;5115401;28;20179;-73
2022/05/07 05:46:38;;;;;;;17.83;12.73;;;14.40;1.00;;;;;;5115228;28;20182;-73
2022/05/07 05:49:04;;;;;;;25.03;14.77;;;14.50;1.00;;;;;;5115061;28;20172;-72
2022/05/07 05:51:29;;;;;;;22.47;13.53;;;14.60;1.00;;;;;;5115166;28;20263;-72
2022/05/07 05:53:55;;;;;;;26.13;14.23;;;14.70;1.00;;;;;;5114810;28;20163;-72
2022/05/07 05:56:21;;;;;;;24.90;15.13;;;14.70;1.00;;;;;;5114799;28;20214;-73
2022/05/07 05:58:46;;;;;;;21.40;15.20;;;14.50;1.00;;;;;;5114227;28;20223;-73
2022/05/07 06:01:12;;;;;;;21.53;13.43;;;14.60;1.00;;;;;;5115103;28;20175;-72
2022/05/07 06:03:38;;;;;;;21.83;13.53;;;14.50;1.00;;;;;;5114105;28;20184;-73
2022/05/07 06:06:04;;;;;;;25.07;15.13;;;14.60;1.00;;;;;;5115106;28;20178;-73
2022/05/07 06:08:30;;;;;;;21.67;14.80;;;14.70;1.00;;;;;;5115049;28;20207;-73
2022/05/07 06:10:57;;;;;;;25.50;15.20;;;14.90;1.00;;;;;;5115039;28;20171;-73
2022/05/07 06:13:24;;;;;;;26.53;15.23;;;15.00;1.00;;;;;;5113659;28;20209;-73
2022/05/07 06:15:52;;;;;;;30.93;16.77;;;15.20;1.00;;;;;;5114598;28;20662;-73
2022/05/07 06:18:22;;;;;;;27.73;15.67;;;15.40;1.00;;;;;;5114250;28;20163;-73
2022/05/07 06:20:49;;;;;;;30.47;15.73;;;15.20;1.00;;;;;;5114477;28;20160;-72
2022/05/07 06:23:15;;;;;;;26.73;15.40;;;15.20;1.00;;;;;;5114820;28;20175;-73
2022/05/07 06:28:25;;;;;;;29.07;15.47;;;14.90;1.00;;;;;;5114726;28;20219;-72
2022/05/07 06:30:51;;;;;;;21.90;14.83;;;14.40;1.00;;;;;;5114261;28;20258;-73
2022/05/07 06:33:17;;;;;;;25.17;16.00;;;14.50;1.00;;;;;;5114203;28;20254;-73
2022/05/07 06:35:43;;;;;;;30.70;16.70;;;14.70;1.00;;;;;;5113332;28;20206;-73
2022/05/07 06:38:10;;;;;;;25.77;16.23;;;15.00;1.00;;;;;;5114480;28;20193;-73
2022/05/07 06:40:37;;;;;;;30.77;16.53;;;15.10;1.00;;;;;;5114093;28;20177;-72
2022/05/07 06:43:03;;;;;;;26.50;16.00;;;15.40;1.00;;;;;;5113879;28;20159;-73
2022/05/07 06:45:29;;;;;;;24.63;15.30;;;15.60;1.00;;;;;;5113190;28;20607;-73
2022/05/07 06:47:54;;;;;;;26.77;15.53;;;15.80;1.00;;;;;;5112935;28;20619;-72
2022/05/07 06:50:20;;;;;;;29.33;14.70;;;15.90;1.00;;;;;;5113164;28;20178;-72
2022/05/07 06:52:46;;;;;;;26.47;16.23;;;16.20;1.00;;;;;;5113400;28;20527;-73
2022/05/07 06:55:13;;;;;;;29.33;15.53;;;16.20;1.00;;;;;;5113769;28;20642;-73
2022/05/07 06:57:39;;;;;;;27.83;15.53;;;16.40;1.00;;;;;;5112986;28;20215;-73
2022/05/07 07:00:06;;;;;;;22.93;15.33;;;16.30;1.00;;;;;;5113954;28;20269;-72
2022/05/07 07:02:31;;;;;;;23.90;14.97;;;16.40;1.00;;;;;;5113142;28;20179;-73
2022/05/07 07:04:58;;;;;;;28.37;15.87;;;16.60;1.00;;;;;;5113256;28;20171;-74
2022/05/07 07:07:25;;;;;;;24.67;15.20;;;16.70;1.00;;;;;;5113682;28;20164;-73
2022/05/07 07:09:51;;;;;;;22.87;15.43;;;16.90;1.00;;;;;;5112942;28;20182;-73
2022/05/07 07:12:17;;;;;;;26.73;16.50;;;17.40;1.00;;;;;;5113273;28;20527;-73
2022/05/07 07:14:43;;;;;;;31.03;16.63;;;17.50;1.00;;;;;;5113230;28;20197;-73
2022/05/07 07:17:08;;;;;;;26.77;16.27;;;17.70;1.00;;;;;;5112932;28;20576;-74
2022/05/07 07:19:34;;;;;;;22.63;16.27;;;17.90;99.90;;;;;;5113252;28;20174;-74
2022/05/07 07:22:00;;;;;;;25.23;16.20;;;17.80;1.00;;;;;;5113206;28;20223;-75
2022/05/07 07:24:26;;;;;;;23.40;15.77;;;18.00;99.90;;;;;;5112822;28;20167;-75
2022/05/07 07:26:52;;;;;;;21.67;15.50;;;18.70;1.00;;;;;;5113551;28;20171;-75
2022/05/07 07:29:19;;;;;;;24.13;15.18;;;20.20;90.90;;;;;;5113156;28;20709;-76
2022/05/07 07:31:44;;;;;;;22.05;15.68;;;21.50;1.00;;;;;;5113038;28;20653;-76
2022/05/07 07:34:10;;;;;;;22.55;15.90;;;22.50;1.00;;;;;;5113529;28;20202;-76
2022/05/07 07:36:35;;;;;;;22.30;16.02;;;23.20;1.00;;;;;;5113122;28;20664;-77
2022/05/07 07:39:06;;;;;;;22.63;16.20;;;24.10;1.00;;;;;;5112792;28;20171;-76
2022/05/07 07:41:33;;;;;;;22.45;16.20;;;24.40;99.90;;;;;;5112876;28;20224;-75
2022/05/07 07:43:58;;;;;;;20.85;15.70;;;23.80;99.90;;;;;;5113053;28;20177;-75
2022/05/07 07:49:09;;;;;;;21.95;16.30;;;24.10;99.90;;;;;;5113165;28;20240;-75
2022/05/07 07:51:35;;;;;;;23.30;16.95;;;25.20;99.90;;;;;;5112760;28;20167;-75
2022/05/07 07:54:00;;;;;;;21.58;17.05;;;26.10;99.90;;;;;;5112735;28;20167;-75
2022/05/07 07:56:26;;;;;;;23.83;16.65;;;26.90;99.90;;;;;;5113304;28;20202;-76
2022/05/07 07:58:52;;;;;;;24.02;17.13;;;27.40;99.90;;;;;;5113497;28;20217;-77
2022/05/07 08:01:17;;;;;;;22.40;17.23;;;27.70;99.90;;;;;;5113415;28;20221;-80
2022/05/07 08:03:43;;;;;;;26.00;16.55;;;28.00;99.90;;;;;;5113117;28;20270;-79
2022/05/07 08:06:09;;;;;;;21.73;16.55;;;29.90;99.90;;;;;;5111720;28;20179;-79
2022/05/07 08:14:03;;;;;;;24.55;18.75;;;31.40;99.90;;;;;;5115448;28;20178;-80
2022/05/07 08:16:28;;;;;;;22.52;18.42;;;31.20;99.90;;;;;;5118172;28;20199;-80
2022/05/07 08:18:54;;;;;;;24.48;17.77;;;29.80;99.90;;;;;;5113597;28;20534;-80
2022/05/07 08:21:20;;;;;;;27.90;17.15;;;29.50;99.90;;;;;;5118047;28;20612;-80
2022/05/07 08:23:46;;;;;;;23.60;17.50;;;29.00;99.90;;;;;;5115854;28;20205;-79
2022/05/07 08:26:12;;;;;;;27.67;18.70;;;28.40;99.90;;;;;;5117007;28;20236;-80
2022/05/07 08:28:38;;;;;;;22.83;18.05;;;26.40;99.90;;;;;;5112993;28;20532;-80
2022/05/07 08:31:05;;;;;;;25.60;17.90;;;25.50;99.90;;;;;;5112478;28;20170;-80
2022/05/07 08:33:34;;;;;;;25.08;18.75;;;25.80;99.90;;;;;;5112613;28;20164;-81
2022/05/07 08:36:00;;;;;;;23.98;18.58;;;26.20;99.90;;;;;;5113865;28;20207;-80
2022/05/07 08:38:26;;;;;;;26.45;18.75;;;25.90;99.90;;;;;;5117216;28;20189;-79
2022/05/07 08:40:52;;;;;;;26.60;17.65;;;25.60;99.90;;;;;;5116871;28;20167;-79
2022/05/07 08:43:19;;;;;;;28.65;19.00;;;25.30;99.90;;;;;;5116580;28;20242;-78
2022/05/07 08:45:45;;;;;;;26.23;18.23;;;25.40;99.90;;;;;;5116893;28;20215;-79
2022/05/07 08:48:11;;;;;;;23.50;17.45;;;25.60;99.90;;;;;;5119085;28;20243;-78
2022/05/07 08:50:39;;;;;;;26.25;17.90;;;25.80;99.90;;;;;;5116316;28;20261;-78
2022/05/07 08:53:05;;;;;;;23.65;16.95;;;25.80;99.90;;;;;;5120443;28;20179;-77
2022/05/07 08:55:31;;;;;;;23.85;17.83;;;26.00;99.90;;;;;;5117059;28;20693;-76
2022/05/07 08:57:57;;;;;;;22.75;15.73;;;25.30;99.90;;;;;;5114711;28;20231;-77
2022/05/07 09:00:25;;;;;;;24.23;16.83;;;25.20;99.90;;;;;;5115834;28;20682;-77
2022/05/07 09:02:55;;;;;;;22.13;17.02;;;25.60;99.90;;;;;;5096983;28;20587;-76
2022/05/07 09:05:22;;;;;;;22.65;16.73;;;25.30;99.90;;;;;;5115627;28;20171;-78
2022/05/07 09:07:57;;;;;;;23.52;16.17;;;25.80;99.90;;;;;;5115654;28;20171;-77
2022/05/07 09:10:31;;;;;;;27.75;17.00;;;26.80;99.90;;;;;;5116809;28;20223;-78
2022/05/07 09:13:15;;;;;;;21.15;15.82;;;26.60;99.90;;;;;;5121343;28;20222;-78
2022/05/07 09:15:51;;;;;;;22.45;15.95;;;26.60;99.90;;;;;;5118262;28;20680;-77
2022/05/07 09:18:19;;;;;;;23.92;16.20;;;26.20;99.90;;;;;;5124701;28;20390;-77
2022/05/07 09:20:56;;;;;;;24.10;17.05;;;26.00;99.90;;;;;;5121487;28;20472;-77
2022/05/07 09:23:24;;;;;;;25.08;16.80;;;25.40;99.90;;;;;;5115475;28;20649;-76
2022/05/07 09:25:50;;;;;;;21.63;16.67;;;24.10;99.90;;;;;;5115103;28;20278;-77
2022/05/07 09:28:29;;;;;;;23.15;15.88;;;23.00;99.90;;;;;;5115085;28;20259;-76
2022/05/07 09:30:56;;;;;;;21.75;16.42;;;23.10;99.90;;;;;;5115434;28;20179;-76
2022/05/07 09:33:34;;;;;;;24.58;16.20;;;24.30;99.90;;;;;;5115807;28;20178;-76
2022/05/07 09:36:12;;;;;;;23.08;16.25;;;25.70;99.90;;;;;;5114732;28;20199;-75
2022/05/07 09:38:38;;;;;;;25.23;15.63;;;26.80;99.90;;;;;;5115051;28;20167;-76
2022/05/07 09:41:05;;;;;;;22.52;16.90;;;27.00;99.90;;;;;;5114355;28;20190;-76
2022/05/07 09:43:32;;;;;;;24.52;16.85;;;27.40;99.90;;;;;;5115649;28;20183;-76
2022/05/07 09:45:57;;;;;;;21.98;16.58;;;27.40;99.90;;;;;;5115829;28;20171;-78
2022/05/07 09:48:24;;;;;;;25.42;16.67;;;27.40;99.90;;;;;;5114308;28;20649;-77
2022/05/07 09:50:50;;;;;;;23.30;15.65;;;27.80;99.90;;;;;;5114603;28;20164;-76
2022/05/07 09:58:51;;;;;;;19.60;14.02;;;28.30;99.90;;;;;;5114787;28;20572;-79
2022/05/07 10:01:25;;;;;;;16.92;12.80;;;29.10;99.90;;;;;;5124868;28;20171;-79
2022/05/07 10:04:15;;;;;;;14.70;13.13;;;30.70;99.90;;;;;;5122797;28;20696;-78
2022/05/07 10:06:49;;;;;;;15.50;12.90;;;31.70;99.90;;;;;;5115932;28;20224;-80
2022/05/07 10:09:45;;;;;;;16.05;13.15;;;32.10;99.90;;;;;;5123378;28;20156;-80
2022/05/07 10:12:17;;;;;;;16.08;12.07;;;33.00;99.30;;;;;;5125067;28;20206;-79
2022/05/07 10:14:43;;;;;;;16.30;14.10;;;32.80;94.90;;;;;;5124822;28;20246;-81
2022/05/07 10:17:11;;;;;;;15.57;13.52;;;33.10;90.20;;;;;;5124406;28;20253;-80
2022/05/07 10:19:39;;;;;;;17.95;13.40;;;33.60;86.00;;;;;;5116751;28;20171;-80
2022/05/07 10:22:23;;;;;;;15.60;13.13;;;33.90;78.90;;;;;;5114130;28;20167;-79
2022/05/07 10:25:10;;;;;;;14.75;12.43;;;33.20;73.30;;;;;;5114876;28;20239;-80
2022/05/07 10:27:41;;;;;;;16.08;12.80;;;33.30;71.70;;;;;;5122255;28;20564;-79
2022/05/07 10:30:20;;;;;;;14.82;12.55;;;33.00;69.10;;;;;;5129360;28;20155;-79
2022/05/07 10:33:03;;;;;;;16.05;13.73;;;32.20;66.20;;;;;;5127894;28;20250;-79
2022/05/07 10:35:40;;;;;;;18.17;14.13;;;31.70;73.00;;;;;;5125515;28;20534;-79
2022/05/07 10:38:10;;;;;;;15.98;13.32;;;31.60;79.60;;;;;;5123619;28;20167;-79
2022/05/07 10:40:36;;;;;;;18.20;14.27;;;31.60;76.90;;;;;;5125325;28;20243;-79
2022/05/07 10:43:06;;;;;;;17.67;14.25;;;31.80;78.90;;;;;;5126317;28;20179;-79
2022/05/07 10:45:41;;;;;;;20.13;14.90;;;32.10;73.10;;;;;;5126296;28;20630;-80
2022/05/07 10:48:17;;;;;;;15.95;14.27;;;31.40;72.70;;;;;;5125383;28;20246;-80
2022/05/07 10:50:55;;;;;;;16.73;15.02;;;32.30;73.40;;;;;;5127848;28;20174;-80
2022/05/07 10:53:21;;;;;;;17.52;14.10;;;33.00;67.90;;;;;;5111152;28;20547;-79
2022/05/07 10:55:50;;;;;;;16.60;14.73;;;33.50;57.40;;;;;;5119158;28;20696;-80
2022/05/07 10:58:25;;;;;;;18.40;14.38;;;33.10;59.10;;;;;;5122645;28;20339;-79
2022/05/07 11:00:51;;;;;;;17.90;14.90;;;33.30;57.20;;;;;;5121980;28;20574;-79
2022/05/07 11:03:24;;;;;;;16.98;15.18;;;33.70;50.10;;;;;;5126451;28;20213;-80
2022/05/07 11:05:50;;;;;;;17.77;15.90;;;34.00;52.40;;;;;;5130245;28;20191;-80
2022/05/07 11:08:16;;;;;;;17.95;15.38;;;34.20;47.80;;;;;;5129111;28;20163;-80
2022/05/07 11:10:42;;;;;;;18.73;15.57;;;34.10;41.70;;;;;;5130410;28;20629;-79
2022/05/07 11:13:08;;;;;;;18.25;14.88;;;33.20;49.80;;;;;;5125034;28;20156;-78
2022/05/07 11:15:34;;;;;;;17.00;14.63;;;33.00;52.90;;;;;;5119972;28;20670;-80
2022/05/07 11:18:00;;;;;;;20.55;15.38;;;33.20;49.60;;;;;;5120187;28;20171;-80
2022/05/07 11:20:31;;;;;;;18.45;13.98;;;31.70;52.10;;;;;;5112969;28;20171;-79
2022/05/07 11:23:01;;;;;;;15.73;13.60;;;31.40;58.70;;;;;;5094784;28;20171;-78
2022/05/07 11:25:28;;;;;;;17.90;14.93;;;30.90;68.70;;;;;;5113112;28;20187;-79
2022/05/07 11:27:55;;;;;;;19.95;14.93;;;30.70;68.80;;;;;;5112443;28;20600;-79
2022/05/07 11:30:22;;;;;;;16.65;14.45;;;30.10;71.50;;;;;;5113168;28;20175;-78
2022/05/07 11:32:47;;;;;;;16.83;13.52;;;29.30;79.90;;;;;;5113392;28;20167;-78
2022/05/07 11:35:13;;;;;;;18.15;13.75;;;28.70;86.70;;;;;;5113111;28;20647;-78
2022/05/07 11:37:44;;;;;;;17.58;13.40;;;28.60;91.40;;;;;;5111801;28;20179;-78
2022/05/07 11:40:11;;;;;;;16.63;12.88;;;29.30;92.90;;;;;;5117939;28;20190;-78
2022/05/07 11:42:44;;;;;;;14.95;13.20;;;30.00;87.10;;;;;;5113058;28;20614;-77
2022/05/07 11:45:26;;;;;;;21.02;13.32;;;30.00;89.50;;;;;;5112385;28;20163;-76
2022/05/07 11:47:56;;;;;;;15.85;11.70;;;29.50;91.30;;;;;;5113245;28;20163;-76
2022/05/07 11:50:27;;;;;;;16.02;12.20;;;28.90;91.40;;;;;;5111338;28;20220;-75
2022/05/07 11:52:53;;;;;;;14.48;12.35;;;28.70;92.70;;;;;;5112049;28;20258;-77
2022/05/07 11:55:29;;;;;;;15.32;11.52;;;28.00;96.40;;;;;;5112677;28;20616;-76
2022/05/07 11:57:58;;;;;;;15.43;11.52;;;28.00;97.20;;;;;;5111092;28;20254;-74
2022/05/07 12:00:26;;;;;;;17.48;11.35;;;27.70;99.90;;;;;;5112594;28;20631;-74
2022/05/07 12:02:52;;;;;;;13.57;10.93;;;27.40;99.90;;;;;;5112695;28;20209;-75
2022/05/07 12:05:19;;;;;;;14.00;11.15;;;27.30;99.90;;;;;;5111392;28;20167;-76
2022/05/07 12:07:49;;;;;;;16.13;10.63;;;27.10;99.90;;;;;;5112210;28;20159;-75
2022/05/07 12:10:19;;;;;;;11.98;10.13;;;27.00;99.90;;;;;;5111737;28;20167;-75
2022/05/07 12:12:46;;;;;;;13.57;10.38;;;26.90;99.90;;;;;;5116706;28;20175;-73
2022/05/07 12:15:12;;;;;;;13.93;9.32;;;26.30;99.90;;;;;;5116783;28;20160;-74
2022/05/07 12:17:53;;;;;;;13.07;9.77;;;26.00;99.90;;;;;;5116079;28;20213;-74
2022/05/07 12:20:23;;;;;;;10.98;9.65;;;25.50;99.90;;;;;;5115463;28;20158;-75
2022/05/07 12:31:02;;;;;;;8.35;7.25;;;25.90;99.90;;;;;;5115976;28;20186;-77
2022/05/07 12:33:29;;;;;;;8.88;6.45;;;26.10;99.90;;;;;;5116483;28;20175;-77
2022/05/07 12:35:54;;;;;;;8.05;6.05;;;26.20;99.90;;;;;;5115295;28;20238;-76
2022/05/07 12:38:20;;;;;;;9.73;7.60;;;26.60;99.90;;;;;;5116208;28;20618;-75
2022/05/07 12:40:46;;;;;;;13.45;8.35;;;26.50;99.90;;;;;;5115872;28;20639;-74
2022/05/07 12:43:12;;;;;;;10.52;8.45;;;26.20;99.90;;;;;;5115620;28;20171;-73
2022/05/07 12:45:37;;;;;;;9.75;8.85;;;25.80;99.90;;;;;;5114681;28;20167;-74
2022/05/07 12:48:03;;;;;;;10.20;9.05;;;25.50;99.90;;;;;;5115489;28;20605;-74
2022/05/07 12:50:29;;;;;;;11.10;8.40;;;25.20;99.90;;;;;;5114796;28;20171;-74
2022/05/07 12:52:54;;;;;;;9.77;8.88;;;25.20;99.90;;;;;;5115737;28;20167;-75
2022/05/07 12:55:20;;;;;;;10.60;9.20;;;25.40;99.90;;;;;;5115867;28;20254;-76
2022/05/07 12:57:47;;;;;;;9.45;8.52;;;25.60;99.90;;;;;;5115268;28;20244;-76
2022/05/07 13:00:13;;;;;;;9.90;8.05;;;25.70;99.90;;;;;;5115163;28;20171;-75
2022/05/07 13:02:39;;;;;;;8.25;7.45;;;25.50;99.90;;;;;;5116231;28;20266;-74
2022/05/07 13:05:06;;;;;;;9.55;7.78;;;25.60;99.90;;;;;;5114512;28;20163;-74
2022/05/07 13:07:31;;;;;;;11.60;9.02;;;25.30;99.90;;;;;;5114976;28;20179;-74
2022/05/07 13:09:57;;;;;;;10.82;7.90;;;24.90;99.90;;;;;;5116230;28;20167;-74
2022/05/07 13:12:24;;;;;;;8.65;7.85;;;24.70;99.90;;;;;;5115271;28;20179;-73
2022/05/07 13:14:50;;;;;;;9.10;8.20;;;24.60;99.90;;;;;;5115129;28;20164;-73